sensor_id;sensor_type;location;lat;lon;timestamp;P1;durP1;ratioP1;P2;durP2;ratioP2
14474;SDS011;7323;50.848;4.334;2023-01-19T00:00:04;19.80;;;15.20;;
14474;SDS011;7323;50.848;4.334;2023-01-19T00:02:30;22.50;;;14.87;;
14474;SDS011;7323;50.848;4.334;2023-01-19T00:04:56;16.70;;;13.73;;
14474;SDS011;7323;50.848;4.334;2023-01-19T00:07:23;18.00;;;14.03;;
14474;SDS011;7323;50.848;4.334;2023-01-19T00:12:44;17.10;;;14.10;;
14474;SDS011;7323;50.848;4.334;2023-01-19T00:15:17;15.83;;;13.87;;
14474;SDS011;7323;50.848;4.334;2023-01-19T00:17:42;16.13;;;13.17;;
14474;SDS011;7323;50.848;4.334;2023-01-19T00:20:09;15.77;;;12.87;;
14474;SDS011;7323;50.848;4.334;2023-01-19T00:22:35;17.70;;;13.97;;
14474;SDS011;7323;50.848;4.334;2023-01-19T00:25:01;22.30;;;14.83;;
14474;SDS011;7323;50.848;4.334;2023-01-19T00:27:27;16.50;;;13.37;;
14474;SDS011;7323;50.848;4.334;2023-01-19T00:29:54;16.20;;;12.47;;
14474;SDS011;7323;50.848;4.334;2023-01-19T00:32:20;17.43;;;13.17;;
14474;SDS011;7323;50.848;4.334;2023-01-19T00:34:45;16.67;;;13.57;;
14474;SDS011;7323;50.848;4.334;2023-01-19T00:37:13;19.37;;;13.73;;
14474;SDS011;7323;50.848;4.334;2023-01-19T00:39:40;15.57;;;13.30;;
14474;SDS011;7323;50.848;4.334;2023-01-19T00:42:07;17.57;;;13.07;;
14474;SDS011;7323;50.848;4.334;2023-01-19T00:44:54;15.93;;;13.47;;
14474;SDS011;7323;50.848;4.334;2023-01-19T00:47:20;17.20;;;14.73;;
14474;SDS011;7323;50.848;4.334;2023-01-19T00:49:48;18.73;;;13.93;;
14474;SDS011;7323;50.848;4.334;2023-01-19T00:52:20;17.00;;;13.50;;
14474;SDS011;7323;50.848;4.334;2023-01-19T00:54:46;19.23;;;13.27;;
14474;SDS011;7323;50.848;4.334;2023-01-19T00:57:11;17.60;;;13.70;;
14474;SDS011;7323;50.848;4.334;2023-01-19T00:59:38;17.10;;;14.20;;
14474;SDS011;7323;50.848;4.334;2023-01-19T01:02:04;19.00;;;14.97;;
14474;SDS011;7323;50.848;4.334;2023-01-19T01:04:30;19.57;;;14.50;;
14474;SDS011;7323;50.848;4.334;2023-01-19T01:06:55;20.10;;;14.93;;
14474;SDS011;7323;50.848;4.334;2023-01-19T01:09:22;19.87;;;14.70;;
14474;SDS011;7323;50.848;4.334;2023-01-19T01:11:48;18.40;;;14.50;;
14474;SDS011;7323;50.848;4.334;2023-01-19T01:14:14;19.43;;;15.33;;
14474;SDS011;7323;50.848;4.334;2023-01-19T01:16:40;18.20;;;14.47;;
14474;SDS011;7323;50.848;4.334;2023-01-19T01:19:05;19.40;;;14.37;;
14474;SDS011;7323;50.848;4.334;2023-01-19T01:21:32;21.67;;;15.30;;
14474;SDS011;7323;50.848;4.334;2023-01-19T01:23:58;20.30;;;14.63;;
14474;SDS011;7323;50.848;4.334;2023-01-19T01:26:24;19.57;;;13.80;;
14474;SDS011;7323;50.848;4.334;2023-01-19T01:28:50;19.97;;;14.23;;
14474;SDS011;7323;50.848;4.334;2023-01-19T01:31:17;18.87;;;14.87;;
14474;SDS011;7323;50.848;4.334;2023-01-19T01:33:43;17.93;;;14.13;;
14474;SDS011;7323;50.848;4.334;2023-01-19T01:38:38;20.43;;;14.73;;
14474;SDS011;7323;50.848;4.334;2023-01-19T01:41:05;20.03;;;14.57;;
14474;SDS011;7323;50.848;4.334;2023-01-19T01:43:45;19.83;;;14.93;;
14474;SDS011;7323;50.848;4.334;2023-01-19T01:46:14;17.53;;;13.60;;
14474;SDS011;7323;50.848;4.334;2023-01-19T01:49:03;20.17;;;14.17;;
14474;SDS011;7323;50.848;4.334;2023-01-19T01:51:41;19.80;;;15.47;;
14474;SDS011;7323;50.848;4.334;2023-01-19T01:54:29;18.00;;;13.73;;
14474;SDS011;7323;50.848;4.334;2023-01-19T01:56:59;20.03;;;14.63;;
14474;SDS011;7323;50.848;4.334;2023-01-19T01:59:33;16.33;;;13.50;;
14474;SDS011;7323;50.848;4.334;2023-01-19T02:02:15;18.87;;;13.57;;
14474;SDS011;7323;50.848;4.334;2023-01-19T02:08:14;19.07;;;13.33;;
14474;SDS011;7323;50.848;4.334;2023-01-19T02:11:03;19.10;;;13.40;;
14474;SDS011;7323;50.848;4.334;2023-01-19T02:13:47;17.50;;;13.50;;
14474;SDS011;7323;50.848;4.334;2023-01-19T02:16:19;17.77;;;14.10;;
14474;SDS011;7323;50.848;4.334;2023-01-19T02:18:45;15.90;;;12.83;;
14474;SDS011;7323;50.848;4.334;2023-01-19T02:23:49;26.60;;;13.60;;
14474;SDS011;7323;50.848;4.334;2023-01-19T02:26:29;14.70;;;12.20;;
14474;SDS011;7323;50.848;4.334;2023-01-19T02:29:06;17.67;;;13.47;;
14474;SDS011;7323;50.848;4.334;2023-01-19T02:31:34;19.83;;;13.10;;
14474;SDS011;7323;50.848;4.334;2023-01-19T02:34:01;16.87;;;13.53;;
14474;SDS011;7323;50.848;4.334;2023-01-19T02:39:38;22.00;;;13.73;;
14474;SDS011;7323;50.848;4.334;2023-01-19T02:42:17;19.60;;;12.80;;
14474;SDS011;7323;50.848;4.334;2023-01-19T02:44:55;17.50;;;13.57;;
14474;SDS011;7323;50.848;4.334;2023-01-19T02:47:22;17.60;;;13.23;;
14474;SDS011;7323;50.848;4.334;2023-01-19T02:49:57;16.30;;;12.57;;
14474;SDS011;7323;50.848;4.334;2023-01-19T02:52:24;18.77;;;12.67;;
14474;SDS011;7323;50.848;4.334;2023-01-19T03:03:24;16.60;;;12.60;;
14474;SDS011;7323;50.848;4.334;2023-01-19T03:11:34;17.53;;;12.90;;
14474;SDS011;7323;50.848;4.334;2023-01-19T03:14:13;16.77;;;12.40;;
14474;SDS011;7323;50.848;4.334;2023-01-19T03:16:55;21.03;;;13.20;;
14474;SDS011;7323;50.848;4.334;2023-01-19T03:19:33;17.07;;;12.77;;
14474;SDS011;7323;50.848;4.334;2023-01-19T03:22:13;18.10;;;12.40;;
14474;SDS011;7323;50.848;4.334;2023-01-19T03:24:43;21.10;;;12.70;;
14474;SDS011;7323;50.848;4.334;2023-01-19T03:27:18;18.63;;;12.77;;
14474;SDS011;7323;50.848;4.334;2023-01-19T03:29:50;19.30;;;12.13;;
14474;SDS011;7323;50.848;4.334;2023-01-19T03:32:24;20.77;;;12.47;;
14474;SDS011;7323;50.848;4.334;2023-01-19T03:34:57;17.87;;;13.63;;
14474;SDS011;7323;50.848;4.334;2023-01-19T03:37:24;17.67;;;13.77;;
14474;SDS011;7323;50.848;4.334;2023-01-19T03:39:53;17.93;;;12.97;;
14474;SDS011;7323;50.848;4.334;2023-01-19T03:42:19;19.53;;;13.37;;
14474;SDS011;7323;50.848;4.334;2023-01-19T03:44:46;21.57;;;13.97;;
14474;SDS011;7323;50.848;4.334;2023-01-19T03:47:14;20.87;;;13.10;;
14474;SDS011;7323;50.848;4.334;2023-01-19T03:49:43;17.90;;;12.27;;
14474;SDS011;7323;50.848;4.334;2023-01-19T03:52:11;18.63;;;12.47;;
14474;SDS011;7323;50.848;4.334;2023-01-19T03:54:38;21.60;;;13.67;;
14474;SDS011;7323;50.848;4.334;2023-01-19T03:57:05;22.70;;;13.27;;
14474;SDS011;7323;50.848;4.334;2023-01-19T03:59:30;20.67;;;13.00;;
14474;SDS011;7323;50.848;4.334;2023-01-19T04:01:56;16.47;;;12.87;;
14474;SDS011;7323;50.848;4.334;2023-01-19T04:04:22;17.63;;;12.80;;
14474;SDS011;7323;50.848;4.334;2023-01-19T04:06:49;21.50;;;12.83;;
14474;SDS011;7323;50.848;4.334;2023-01-19T04:09:15;17.37;;;12.43;;
14474;SDS011;7323;50.848;4.334;2023-01-19T04:11:40;17.63;;;12.63;;
14474;SDS011;7323;50.848;4.334;2023-01-19T04:14:06;15.30;;;12.77;;
14474;SDS011;7323;50.848;4.334;2023-01-19T04:16:33;18.23;;;12.47;;
14474;SDS011;7323;50.848;4.334;2023-01-19T04:18:59;18.83;;;12.83;;
14474;SDS011;7323;50.848;4.334;2023-01-19T04:21:25;18.77;;;13.70;;
14474;SDS011;7323;50.848;4.334;2023-01-19T04:23:51;18.77;;;13.33;;
14474;SDS011;7323;50.848;4.334;2023-01-19T04:26:17;19.10;;;11.87;;
14474;SDS011;7323;50.848;4.334;2023-01-19T04:28:43;20.93;;;12.93;;
14474;SDS011;7323;50.848;4.334;2023-01-19T04:31:10;18.00;;;13.17;;
14474;SDS011;7323;50.848;4.334;2023-01-19T04:33:36;20.83;;;13.63;;
14474;SDS011;7323;50.848;4.334;2023-01-19T04:36:02;20.97;;;14.30;;
14474;SDS011;7323;50.848;4.334;2023-01-19T04:40:56;23.97;;;14.57;;
14474;SDS011;7323;50.848;4.334;2023-01-19T04:43:22;27.97;;;15.47;;
14474;SDS011;7323;50.848;4.334;2023-01-19T04:45:48;23.63;;;15.63;;
14474;SDS011;7323;50.848;4.334;2023-01-19T04:48:14;22.27;;;15.30;;
14474;SDS011;7323;50.848;4.334;2023-01-19T04:50:40;21.87;;;15.10;;
14474;SDS011;7323;50.848;4.334;2023-01-19T04:53:08;21.00;;;15.27;;
14474;SDS011;7323;50.848;4.334;2023-01-19T04:55:40;25.17;;;16.53;;
14474;SDS011;7323;50.848;4.334;2023-01-19T04:58:10;22.43;;;17.00;;
14474;SDS011;7323;50.848;4.334;2023-01-19T05:03:24;23.73;;;17.00;;
14474;SDS011;7323;50.848;4.334;2023-01-19T05:11:15;26.10;;;18.37;;
14474;SDS011;7323;50.848;4.334;2023-01-19T05:13:41;26.53;;;17.37;;
14474;SDS011;7323;50.848;4.334;2023-01-19T05:16:07;25.20;;;17.27;;
14474;SDS011;7323;50.848;4.334;2023-01-19T05:18:32;27.40;;;18.33;;
14474;SDS011;7323;50.848;4.334;2023-01-19T05:21:01;24.63;;;17.73;;
14474;SDS011;7323;50.848;4.334;2023-01-19T05:23:28;26.83;;;17.80;;
14474;SDS011;7323;50.848;4.334;2023-01-19T05:25:58;31.43;;;19.73;;
14474;SDS011;7323;50.848;4.334;2023-01-19T05:28:28;29.93;;;18.67;;
14474;SDS011;7323;50.848;4.334;2023-01-19T05:30:55;26.60;;;18.10;;
14474;SDS011;7323;50.848;4.334;2023-01-19T05:33:21;29.07;;;19.60;;
14474;SDS011;7323;50.848;4.334;2023-01-19T05:35:51;26.43;;;18.50;;
14474;SDS011;7323;50.848;4.334;2023-01-19T05:38:18;32.00;;;18.67;;
14474;SDS011;7323;50.848;4.334;2023-01-19T05:40:45;26.57;;;18.30;;
14474;SDS011;7323;50.848;4.334;2023-01-19T05:43:12;28.53;;;19.30;;
14474;SDS011;7323;50.848;4.334;2023-01-19T05:45:38;26.80;;;18.53;;
14474;SDS011;7323;50.848;4.334;2023-01-19T05:48:05;30.00;;;18.53;;
14474;SDS011;7323;50.848;4.334;2023-01-19T05:50:32;28.43;;;18.10;;
14474;SDS011;7323;50.848;4.334;2023-01-19T05:52:58;28.53;;;18.17;;
14474;SDS011;7323;50.848;4.334;2023-01-19T05:55:25;28.20;;;18.17;;
14474;SDS011;7323;50.848;4.334;2023-01-19T05:57:52;28.37;;;18.77;;
14474;SDS011;7323;50.848;4.334;2023-01-19T06:00:18;29.33;;;17.67;;
14474;SDS011;7323;50.848;4.334;2023-01-19T06:02:44;25.67;;;17.07;;
14474;SDS011;7323;50.848;4.334;2023-01-19T06:05:14;27.77;;;18.00;;
14474;SDS011;7323;50.848;4.334;2023-01-19T06:07:43;28.93;;;18.10;;
14474;SDS011;7323;50.848;4.334;2023-01-19T06:10:10;27.13;;;17.50;;
14474;SDS011;7323;50.848;4.334;2023-01-19T06:12:40;28.27;;;17.87;;
14474;SDS011;7323;50.848;4.334;2023-01-19T06:15:08;28.53;;;17.67;;
14474;SDS011;7323;50.848;4.334;2023-01-19T06:17:34;29.33;;;16.53;;
14474;SDS011;7323;50.848;4.334;2023-01-19T06:20:00;29.40;;;17.53;;
14474;SDS011;7323;50.848;4.334;2023-01-19T06:22:27;27.90;;;18.30;;
14474;SDS011;7323;50.848;4.334;2023-01-19T06:24:52;27.80;;;17.57;;
14474;SDS011;7323;50.848;4.334;2023-01-19T06:27:19;25.40;;;16.50;;
14474;SDS011;7323;50.848;4.334;2023-01-19T06:29:45;26.00;;;17.80;;
14474;SDS011;7323;50.848;4.334;2023-01-19T06:32:11;24.97;;;16.10;;
14474;SDS011;7323;50.848;4.334;2023-01-19T06:34:37;25.03;;;16.80;;
14474;SDS011;7323;50.848;4.334;2023-01-19T06:37:07;24.23;;;15.77;;
14474;SDS011;7323;50.848;4.334;2023-01-19T06:39:39;24.77;;;16.53;;
14474;SDS011;7323;50.848;4.334;2023-01-19T06:42:06;27.93;;;16.33;;
14474;SDS011;7323;50.848;4.334;2023-01-19T06:44:33;27.17;;;16.60;;
14474;SDS011;7323;50.848;4.334;2023-01-19T06:47:16;32.03;;;17.77;;
14474;SDS011;7323;50.848;4.334;2023-01-19T06:49:42;27.57;;;15.93;;
14474;SDS011;7323;50.848;4.334;2023-01-19T06:52:08;24.13;;;16.97;;
14474;SDS011;7323;50.848;4.334;2023-01-19T06:54:38;25.27;;;16.90;;
14474;SDS011;7323;50.848;4.334;2023-01-19T06:57:04;30.30;;;17.73;;
14474;SDS011;7323;50.848;4.334;2023-01-19T06:59:29;27.63;;;17.47;;
14474;SDS011;7323;50.848;4.334;2023-01-19T07:01:55;25.70;;;17.63;;
14474;SDS011;7323;50.848;4.334;2023-01-19T07:04:21;27.53;;;17.57;;
14474;SDS011;7323;50.848;4.334;2023-01-19T07:06:47;27.27;;;17.40;;
14474;SDS011;7323;50.848;4.334;2023-01-19T07:09:12;25.33;;;16.93;;
14474;SDS011;7323;50.848;4.334;2023-01-19T07:11:38;26.20;;;18.33;;
14474;SDS011;7323;50.848;4.334;2023-01-19T07:14:04;26.53;;;17.47;;
14474;SDS011;7323;50.848;4.334;2023-01-19T07:16:30;26.83;;;17.73;;
14474;SDS011;7323;50.848;4.334;2023-01-19T07:18:57;25.70;;;18.07;;
14474;SDS011;7323;50.848;4.334;2023-01-19T07:21:22;28.10;;;18.40;;
14474;SDS011;7323;50.848;4.334;2023-01-19T07:23:52;28.17;;;18.50;;
14474;SDS011;7323;50.848;4.334;2023-01-19T07:26:18;28.17;;;17.57;;
14474;SDS011;7323;50.848;4.334;2023-01-19T07:28:45;27.13;;;17.23;;
14474;SDS011;7323;50.848;4.334;2023-01-19T07:31:12;28.23;;;17.33;;
14474;SDS011;7323;50.848;4.334;2023-01-19T07:33:39;32.73;;;17.60;;
14474;SDS011;7323;50.848;4.334;2023-01-19T07:36:05;32.97;;;19.20;;
14474;SDS011;7323;50.848;4.334;2023-01-19T07:38:31;30.27;;;17.93;;
14474;SDS011;7323;50.848;4.334;2023-01-19T07:41:01;36.37;;;18.97;;
14474;SDS011;7323;50.848;4.334;2023-01-19T07:43:27;29.70;;;18.10;;
14474;SDS011;7323;50.848;4.334;2023-01-19T07:45:57;34.27;;;18.37;;
14474;SDS011;7323;50.848;4.334;2023-01-19T07:48:24;27.23;;;17.57;;
14474;SDS011;7323;50.848;4.334;2023-01-19T07:50:49;29.60;;;19.13;;
14474;SDS011;7323;50.848;4.334;2023-01-19T07:53:15;29.37;;;18.93;;
14474;SDS011;7323;50.848;4.334;2023-01-19T07:55:41;29.60;;;19.77;;
14474;SDS011;7323;50.848;4.334;2023-01-19T07:58:07;31.67;;;19.57;;
14474;SDS011;7323;50.848;4.334;2023-01-19T08:00:34;31.73;;;20.37;;
14474;SDS011;7323;50.848;4.334;2023-01-19T08:03:00;28.70;;;18.33;;
14474;SDS011;7323;50.848;4.334;2023-01-19T08:05:27;30.37;;;18.60;;
14474;SDS011;7323;50.848;4.334;2023-01-19T08:07:54;32.20;;;19.47;;
14474;SDS011;7323;50.848;4.334;2023-01-19T08:10:26;28.33;;;18.23;;
14474;SDS011;7323;50.848;4.334;2023-01-19T08:12:52;29.53;;;19.40;;
14474;SDS011;7323;50.848;4.334;2023-01-19T08:15:19;31.83;;;19.27;;
14474;SDS011;7323;50.848;4.334;2023-01-19T08:18:09;31.30;;;18.43;;
14474;SDS011;7323;50.848;4.334;2023-01-19T08:20:35;29.27;;;19.33;;
14474;SDS011;7323;50.848;4.334;2023-01-19T08:23:02;31.23;;;19.90;;
14474;SDS011;7323;50.848;4.334;2023-01-19T08:25:40;30.97;;;18.53;;
14474;SDS011;7323;50.848;4.334;2023-01-19T08:28:08;30.13;;;19.13;;
14474;SDS011;7323;50.848;4.334;2023-01-19T08:30:35;34.23;;;20.43;;
14474;SDS011;7323;50.848;4.334;2023-01-19T08:33:02;34.20;;;19.10;;
14474;SDS011;7323;50.848;4.334;2023-01-19T08:35:31;34.67;;;19.77;;
14474;SDS011;7323;50.848;4.334;2023-01-19T08:38:03;29.87;;;18.87;;
14474;SDS011;7323;50.848;4.334;2023-01-19T08:40:31;30.37;;;19.23;;
14474;SDS011;7323;50.848;4.334;2023-01-19T08:43:00;35.37;;;20.90;;
14474;SDS011;7323;50.848;4.334;2023-01-19T08:45:32;38.00;;;22.10;;
14474;SDS011;7323;50.848;4.334;2023-01-19T08:47:58;32.30;;;18.57;;
14474;SDS011;7323;50.848;4.334;2023-01-19T08:50:25;30.97;;;19.63;;
14474;SDS011;7323;50.848;4.334;2023-01-19T08:52:51;28.23;;;18.30;;
14474;SDS011;7323;50.848;4.334;2023-01-19T08:55:19;36.70;;;20.80;;
14474;SDS011;7323;50.848;4.334;2023-01-19T08:57:51;34.87;;;19.00;;
14474;SDS011;7323;50.848;4.334;2023-01-19T09:00:18;29.20;;;17.93;;
14474;SDS011;7323;50.848;4.334;2023-01-19T09:02:45;33.17;;;19.93;;
14474;SDS011;7323;50.848;4.334;2023-01-19T09:05:14;34.83;;;19.70;;
14474;SDS011;7323;50.848;4.334;2023-01-19T09:12:46;31.80;;;19.57;;
14474;SDS011;7323;50.848;4.334;2023-01-19T09:18:12;35.17;;;19.53;;
14474;SDS011;7323;50.848;4.334;2023-01-19T09:20:39;35.43;;;19.17;;
14474;SDS011;7323;50.848;4.334;2023-01-19T09:23:10;33.20;;;18.93;;
14474;SDS011;7323;50.848;4.334;2023-01-19T09:25:37;35.07;;;18.57;;
14474;SDS011;7323;50.848;4.334;2023-01-19T09:28:10;35.73;;;17.70;;
14474;SDS011;7323;50.848;4.334;2023-01-19T09:30:39;34.57;;;18.73;;
14474;SDS011;7323;50.848;4.334;2023-01-19T09:33:07;32.80;;;18.50;;
14474;SDS011;7323;50.848;4.334;2023-01-19T09:35:35;33.23;;;19.10;;
14474;SDS011;7323;50.848;4.334;2023-01-19T09:38:02;34.80;;;19.47;;
14474;SDS011;7323;50.848;4.334;2023-01-19T09:40:29;36.57;;;17.43;;
14474;SDS011;7323;50.848;4.334;2023-01-19T09:42:56;39.10;;;18.90;;
14474;SDS011;7323;50.848;4.334;2023-01-19T09:45:47;29.13;;;17.10;;
14474;SDS011;7323;50.848;4.334;2023-01-19T09:51:21;36.77;;;18.37;;
14474;SDS011;7323;50.848;4.334;2023-01-19T09:53:52;32.50;;;18.30;;
14474;SDS011;7323;50.848;4.334;2023-01-19T09:56:34;29.53;;;17.53;;
14474;SDS011;7323;50.848;4.334;2023-01-19T10:04:42;30.20;;;18.20;;
14474;SDS011;7323;50.848;4.334;2023-01-19T10:10:03;34.47;;;16.93;;
14474;SDS011;7323;50.848;4.334;2023-01-19T10:18:42;33.80;;;15.63;;
14474;SDS011;7323;50.848;4.334;2023-01-19T10:26:38;31.33;;;16.70;;
14474;SDS011;7323;50.848;4.334;2023-01-19T10:31:44;32.27;;;17.23;;
14474;SDS011;7323;50.848;4.334;2023-01-19T10:34:11;30.93;;;16.37;;
14474;SDS011;7323;50.848;4.334;2023-01-19T10:36:42;30.60;;;16.93;;
14474;SDS011;7323;50.848;4.334;2023-01-19T10:39:11;25.60;;;17.07;;
14474;SDS011;7323;50.848;4.334;2023-01-19T10:41:42;29.70;;;16.80;;
14474;SDS011;7323;50.848;4.334;2023-01-19T10:44:21;30.40;;;17.50;;
14474;SDS011;7323;50.848;4.334;2023-01-19T10:46:52;31.03;;;16.57;;
14474;SDS011;7323;50.848;4.334;2023-01-19T10:49:55;26.97;;;16.17;;
14474;SDS011;7323;50.848;4.334;2023-01-19T10:54:57;27.37;;;16.17;;
14474;SDS011;7323;50.848;4.334;2023-01-19T10:57:25;31.40;;;17.03;;
14474;SDS011;7323;50.848;4.334;2023-01-19T10:59:54;33.60;;;18.60;;
14474;SDS011;7323;50.848;4.334;2023-01-19T11:04:52;31.30;;;15.90;;
14474;SDS011;7323;50.848;4.334;2023-01-19T11:07:30;28.33;;;16.90;;
14474;SDS011;7323;50.848;4.334;2023-01-19T11:21:09;30.13;;;18.33;;
14474;SDS011;7323;50.848;4.334;2023-01-19T11:23:50;31.13;;;17.43;;
14474;SDS011;7323;50.848;4.334;2023-01-19T11:29:30;31.80;;;18.07;;
14474;SDS011;7323;50.848;4.334;2023-01-19T11:31:55;33.20;;;19.03;;
14474;SDS011;7323;50.848;4.334;2023-01-19T11:34:43;30.33;;;18.50;;
14474;SDS011;7323;50.848;4.334;2023-01-19T11:39:45;30.70;;;18.53;;
14474;SDS011;7323;50.848;4.334;2023-01-19T11:42:16;33.47;;;18.80;;
14474;SDS011;7323;50.848;4.334;2023-01-19T11:44:45;29.53;;;18.20;;
14474;SDS011;7323;50.848;4.334;2023-01-19T11:47:26;31.97;;;19.30;;
14474;SDS011;7323;50.848;4.334;2023-01-19T11:52:59;26.47;;;17.80;;
14474;SDS011;7323;50.848;4.334;2023-01-19T11:58:23;29.23;;;17.53;;
14474;SDS011;7323;50.848;4.334;2023-01-19T12:00:52;34.50;;;25.27;;
14474;SDS011;7323;50.848;4.334;2023-01-19T12:03:33;30.20;;;18.27;;
14474;SDS011;7323;50.848;4.334;2023-01-19T12:06:25;27.93;;;16.13;;
14474;SDS011;7323;50.848;4.334;2023-01-19T12:17:26;26.50;;;16.47;;
14474;SDS011;7323;50.848;4.334;2023-01-19T12:20:05;30.87;;;16.87;;
14474;SDS011;7323;50.848;4.334;2023-01-19T12:22:58;24.63;;;14.63;;
14474;SDS011;7323;50.848;4.334;2023-01-19T12:31:42;25.27;;;15.83;;
14474;SDS011;7323;50.848;4.334;2023-01-19T12:36:50;25.50;;;16.57;;
14474;SDS011;7323;50.848;4.334;2023-01-19T12:39:17;22.93;;;15.87;;
14474;SDS011;7323;50.848;4.334;2023-01-19T12:41:45;25.40;;;16.13;;
14474;SDS011;7323;50.848;4.334;2023-01-19T12:46:54;28.80;;;17.93;;
14474;SDS011;7323;50.848;4.334;2023-01-19T12:49:31;27.80;;;17.17;;
14474;SDS011;7323;50.848;4.334;2023-01-19T12:52:20;26.40;;;16.97;;
14474;SDS011;7323;50.848;4.334;2023-01-19T12:55:16;24.40;;;15.60;;
14474;SDS011;7323;50.848;4.334;2023-01-19T13:21:40;21.50;;;14.53;;
14474;SDS011;7323;50.848;4.334;2023-01-19T13:24:11;22.20;;;14.03;;
14474;SDS011;7323;50.848;4.334;2023-01-19T13:26:50;19.67;;;14.23;;
14474;SDS011;7323;50.848;4.334;2023-01-19T13:31:45;25.17;;;15.20;;
14474;SDS011;7323;50.848;4.334;2023-01-19T13:34:17;21.30;;;14.17;;
14474;SDS011;7323;50.848;4.334;2023-01-19T13:36:46;22.63;;;13.57;;
14474;SDS011;7323;50.848;4.334;2023-01-19T13:39:16;25.60;;;14.40;;
14474;SDS011;7323;50.848;4.334;2023-01-19T13:42:02;20.70;;;14.20;;
14474;SDS011;7323;50.848;4.334;2023-01-19T13:47:28;20.60;;;13.77;;
14474;SDS011;7323;50.848;4.334;2023-01-19T13:50:25;19.17;;;12.57;;
14474;SDS011;7323;50.848;4.334;2023-01-19T13:52:53;18.87;;;12.90;;
14474;SDS011;7323;50.848;4.334;2023-01-19T13:55:21;18.17;;;13.17;;
14474;SDS011;7323;50.848;4.334;2023-01-19T13:57:49;16.53;;;11.50;;
14474;SDS011;7323;50.848;4.334;2023-01-19T14:00:19;20.50;;;11.80;;
14474;SDS011;7323;50.848;4.334;2023-01-19T14:05:36;21.57;;;12.50;;
14474;SDS011;7323;50.848;4.334;2023-01-19T14:10:37;16.57;;;12.63;;
14474;SDS011;7323;50.848;4.334;2023-01-19T14:15:42;20.47;;;11.73;;
14474;SDS011;7323;50.848;4.334;2023-01-19T14:20:50;21.03;;;12.87;;
14474;SDS011;7323;50.848;4.334;2023-01-19T14:31:41;16.70;;;12.30;;
14474;SDS011;7323;50.848;4.334;2023-01-19T14:36:56;20.37;;;12.27;;
14474;SDS011;7323;50.848;4.334;2023-01-19T14:39:23;16.43;;;11.80;;
14474;SDS011;7323;50.848;4.334;2023-01-19T14:41:51;18.80;;;11.83;;
14474;SDS011;7323;50.848;4.334;2023-01-19T14:44:25;19.77;;;12.17;;
14474;SDS011;7323;50.848;4.334;2023-01-19T14:46:57;18.13;;;11.97;;
14474;SDS011;7323;50.848;4.334;2023-01-19T14:49:35;17.07;;;12.00;;
14474;SDS011;7323;50.848;4.334;2023-01-19T14:52:06;15.53;;;11.27;;
14474;SDS011;7323;50.848;4.334;2023-01-19T14:54:44;17.17;;;12.13;;
14474;SDS011;7323;50.848;4.334;2023-01-19T14:57:12;18.07;;;11.77;;
14474;SDS011;7323;50.848;4.334;2023-01-19T14:59:39;16.40;;;11.37;;
14474;SDS011;7323;50.848;4.334;2023-01-19T15:02:05;17.07;;;11.80;;
14474;SDS011;7323;50.848;4.334;2023-01-19T15:04:31;21.23;;;11.73;;
14474;SDS011;7323;50.848;4.334;2023-01-19T15:06:57;15.13;;;11.00;;
14474;SDS011;7323;50.848;4.334;2023-01-19T15:09:22;18.07;;;11.70;;
14474;SDS011;7323;50.848;4.334;2023-01-19T15:11:48;17.67;;;11.07;;
14474;SDS011;7323;50.848;4.334;2023-01-19T15:14:15;16.67;;;10.60;;
14474;SDS011;7323;50.848;4.334;2023-01-19T15:16:42;16.93;;;11.67;;
14474;SDS011;7323;50.848;4.334;2023-01-19T15:19:10;15.80;;;11.57;;
14474;SDS011;7323;50.848;4.334;2023-01-19T15:21:42;16.70;;;11.10;;
14474;SDS011;7323;50.848;4.334;2023-01-19T15:24:10;19.47;;;11.77;;
14474;SDS011;7323;50.848;4.334;2023-01-19T15:26:43;18.73;;;12.10;;
14474;SDS011;7323;50.848;4.334;2023-01-19T15:29:11;19.40;;;11.10;;
14474;SDS011;7323;50.848;4.334;2023-01-19T15:31:42;18.27;;;11.63;;
14474;SDS011;7323;50.848;4.334;2023-01-19T15:34:10;16.57;;;11.57;;
14474;SDS011;7323;50.848;4.334;2023-01-19T15:36:37;17.60;;;10.93;;
14474;SDS011;7323;50.848;4.334;2023-01-19T15:39:03;20.73;;;12.77;;
14474;SDS011;7323;50.848;4.334;2023-01-19T15:41:28;17.63;;;10.77;;
14474;SDS011;7323;50.848;4.334;2023-01-19T15:43:56;19.50;;;12.10;;
14474;SDS011;7323;50.848;4.334;2023-01-19T15:46:24;17.80;;;11.97;;
14474;SDS011;7323;50.848;4.334;2023-01-19T15:48:50;18.63;;;12.97;;
14474;SDS011;7323;50.848;4.334;2023-01-19T15:51:18;16.70;;;12.00;;
14474;SDS011;7323;50.848;4.334;2023-01-19T15:53:45;17.50;;;11.90;;
14474;SDS011;7323;50.848;4.334;2023-01-19T15:56:15;18.83;;;12.73;;
14474;SDS011;7323;50.848;4.334;2023-01-19T15:58:46;21.60;;;12.00;;
14474;SDS011;7323;50.848;4.334;2023-01-19T16:03:42;18.13;;;11.23;;
14474;SDS011;7323;50.848;4.334;2023-01-19T16:06:11;16.43;;;11.07;;
14474;SDS011;7323;50.848;4.334;2023-01-19T16:08:37;17.47;;;12.20;;
14474;SDS011;7323;50.848;4.334;2023-01-19T16:11:08;16.33;;;11.93;;
14474;SDS011;7323;50.848;4.334;2023-01-19T16:13:35;19.87;;;12.77;;
14474;SDS011;7323;50.848;4.334;2023-01-19T16:16:04;17.50;;;12.27;;
14474;SDS011;7323;50.848;4.334;2023-01-19T16:18:32;14.63;;;10.67;;
14474;SDS011;7323;50.848;4.334;2023-01-19T16:20:59;19.67;;;13.13;;
14474;SDS011;7323;50.848;4.334;2023-01-19T16:23:25;19.73;;;12.33;;
14474;SDS011;7323;50.848;4.334;2023-01-19T16:25:58;18.53;;;11.57;;
14474;SDS011;7323;50.848;4.334;2023-01-19T16:28:29;18.93;;;12.47;;
14474;SDS011;7323;50.848;4.334;2023-01-19T16:30:55;18.10;;;11.93;;
14474;SDS011;7323;50.848;4.334;2023-01-19T16:33:21;16.80;;;12.30;;
14474;SDS011;7323;50.848;4.334;2023-01-19T16:35:49;17.80;;;12.13;;
14474;SDS011;7323;50.848;4.334;2023-01-19T16:38:15;15.97;;;11.07;;
14474;SDS011;7323;50.848;4.334;2023-01-19T16:40:42;19.93;;;12.20;;
14474;SDS011;7323;50.848;4.334;2023-01-19T16:43:11;17.73;;;11.40;;
14474;SDS011;7323;50.848;4.334;2023-01-19T16:45:54;16.73;;;11.13;;
14474;SDS011;7323;50.848;4.334;2023-01-19T16:48:24;16.43;;;10.60;;
14474;SDS011;7323;50.848;4.334;2023-01-19T16:50:57;17.73;;;11.13;;
14474;SDS011;7323;50.848;4.334;2023-01-19T16:53:28;18.43;;;11.60;;
14474;SDS011;7323;50.848;4.334;2023-01-19T16:55:55;20.93;;;13.17;;
14474;SDS011;7323;50.848;4.334;2023-01-19T16:58:21;16.83;;;12.10;;
14474;SDS011;7323;50.848;4.334;2023-01-19T17:00:47;18.33;;;12.03;;
14474;SDS011;7323;50.848;4.334;2023-01-19T17:03:13;20.20;;;11.83;;
14474;SDS011;7323;50.848;4.334;2023-01-19T17:05:46;19.57;;;12.10;;
14474;SDS011;7323;50.848;4.334;2023-01-19T17:08:20;17.10;;;11.43;;
14474;SDS011;7323;50.848;4.334;2023-01-19T17:10:46;15.00;;;10.97;;
14474;SDS011;7323;50.848;4.334;2023-01-19T17:13:14;18.00;;;11.17;;
14474;SDS011;7323;50.848;4.334;2023-01-19T17:15:41;20.13;;;11.53;;
14474;SDS011;7323;50.848;4.334;2023-01-19T17:18:09;17.03;;;11.80;;
14474;SDS011;7323;50.848;4.334;2023-01-19T17:20:37;17.10;;;12.47;;
14474;SDS011;7323;50.848;4.334;2023-01-19T17:23:03;19.13;;;12.30;;
14474;SDS011;7323;50.848;4.334;2023-01-19T17:25:28;20.63;;;12.50;;
14474;SDS011;7323;50.848;4.334;2023-01-19T17:27:54;22.53;;;13.77;;
14474;SDS011;7323;50.848;4.334;2023-01-19T17:30:21;21.87;;;14.43;;
14474;SDS011;7323;50.848;4.334;2023-01-19T17:32:46;22.83;;;14.90;;
14474;SDS011;7323;50.848;4.334;2023-01-19T17:35:12;21.67;;;14.13;;
14474;SDS011;7323;50.848;4.334;2023-01-19T17:37:40;18.97;;;13.97;;
14474;SDS011;7323;50.848;4.334;2023-01-19T17:40:13;20.67;;;14.67;;